createdAt,value
2022-10-14T00:01:22.656Z,14.27
2022-10-14T00:03:51.376Z,14.35
2022-10-14T00:06:25.167Z,13.57
2022-10-14T00:08:53.181Z,12.77
2022-10-14T00:11:27.028Z,11.88
2022-10-14T00:13:59.390Z,14.48
2022-10-14T00:16:33.497Z,15.07
2022-10-14T00:19:01.253Z,11.05
2022-10-14T00:21:29.501Z,13.45
2022-10-14T00:24:01.215Z,10.65
2022-10-14T00:26:31.392Z,12.38
2022-10-14T00:29:02.549Z,13.48
2022-10-14T00:31:30.251Z,10.65
2022-10-14T00:33:57.486Z,11.05
2022-10-14T00:36:26.151Z,10.57
2022-10-14T00:38:56.978Z,11.77
2022-10-14T00:41:30.911Z,10.77
2022-10-14T00:44:01.112Z,11.82
2022-10-14T00:46:32.420Z,12.93
2022-10-14T00:49:12.496Z,13.15
2022-10-14T00:51:42.826Z,10.50
2022-10-14T00:54:12.743Z,12.02
2022-10-14T00:56:40.900Z,10.13
2022-10-14T00:59:08.388Z,11.43
2022-10-14T01:01:35.712Z,12.70
2022-10-14T01:04:02.985Z,11.38
2022-10-14T01:07:15.584Z,11.23
2022-10-14T01:10:13.728Z,8.68
2022-10-14T01:13:01.938Z,9.25
2022-10-14T01:15:59.916Z,10.07
2022-10-14T01:18:29.911Z,8.70
2022-10-14T01:21:16.835Z,8.45
2022-10-14T01:24:18.672Z,10.35
2022-10-14T01:27:07.306Z,10.25
2022-10-14T01:29:58.478Z,10.65
2022-10-14T01:32:40.725Z,9.23
2022-10-14T01:35:28.249Z,8.98
2022-10-14T01:38:03.616Z,8.95
2022-10-14T01:40:39.163Z,10.23
2022-10-14T01:43:10.845Z,10.70
2022-10-14T01:45:45.934Z,8.50
2022-10-14T01:48:18.565Z,11.98
2022-10-14T01:50:53.187Z,10.93
2022-10-14T01:53:32.840Z,9.80
2022-10-14T01:56:02.116Z,9.45
2022-10-14T01:58:33.930Z,9.80
2022-10-14T02:01:10.610Z,9.23
2022-10-14T02:03:45.201Z,9.95
2022-10-14T02:06:36.682Z,9.18
2022-10-14T02:09:18.525Z,8.85
2022-10-14T02:12:11.609Z,10.18
2022-10-14T02:14:54.628Z,9.93
2022-10-14T02:17:27.855Z,10.43
2022-10-14T02:20:26.453Z,7.93
2022-10-14T02:23:12.228Z,7.70
2022-10-14T02:25:45.254Z,9.45
2022-10-14T02:28:18.153Z,10.82
2022-10-14T02:30:51.266Z,11.43
2022-10-14T02:33:21.868Z,9.15
2022-10-14T02:35:50.412Z,10.85
2022-10-14T02:38:22.638Z,7.28
2022-10-14T02:40:51.131Z,9.52
2022-10-14T02:43:18.620Z,10.15
2022-10-14T02:45:45.844Z,9.85
2022-10-14T02:48:15.911Z,10.63
2022-10-14T02:50:46.516Z,8.70
2022-10-14T02:53:16.514Z,9.57
2022-10-14T02:55:43.713Z,9.18
2022-10-14T02:58:10.930Z,8.30
2022-10-14T03:00:38.741Z,10.48
2022-10-14T03:03:08.877Z,8.52
2022-10-14T03:05:36.259Z,9.73
2022-10-14T03:08:03.536Z,10.77
2022-10-14T03:10:32.810Z,10.20
2022-10-14T03:13:02.171Z,8.80
2022-10-14T03:15:29.462Z,11.15
2022-10-14T03:17:56.637Z,10.27
2022-10-14T03:20:23.975Z,10.40
2022-10-14T03:22:53.632Z,8.85
2022-10-14T03:25:20.938Z,11.15
2022-10-14T03:27:50.481Z,8.88
2022-10-14T03:30:17.790Z,10.80
2022-10-14T03:32:47.106Z,10.65
2022-10-14T03:35:14.782Z,10.20
2022-10-14T03:37:41.964Z,7.85
2022-10-14T03:40:09.685Z,11.20
2022-10-14T03:42:37.000Z,9.80
2022-10-14T03:45:04.669Z,9.48
2022-10-14T03:47:34.002Z,9.98
2022-10-14T03:50:02.890Z,8.55
2022-10-14T03:52:30.095Z,8.50
2022-10-14T03:54:57.375Z,9.23
2022-10-14T03:57:24.690Z,9.57
2022-10-14T03:59:54.202Z,7.88
2022-10-14T04:02:21.617Z,9.35
2022-10-14T04:04:49.485Z,8.68
2022-10-14T04:07:19.743Z,9.25
2022-10-14T04:09:49.440Z,9.38
2022-10-14T04:12:19.700Z,8.80
2022-10-14T04:14:47.645Z,9.48
2022-10-14T04:17:15.211Z,10.00
2022-10-14T04:19:45.038Z,8.48
2022-10-14T04:22:12.370Z,9.07
2022-10-14T04:24:41.856Z,7.40
2022-10-14T04:27:09.035Z,7.63
2022-10-14T04:29:36.651Z,10.43
2022-10-14T04:32:04.345Z,10.43
2022-10-14T04:34:31.541Z,10.57
2022-10-14T04:36:58.765Z,7.55
2022-10-14T04:39:25.994Z,6.80
2022-10-14T04:41:53.215Z,7.88
2022-10-14T04:44:20.437Z,7.43
2022-10-14T04:46:47.677Z,7.18
2022-10-14T04:49:16.530Z,7.90
2022-10-14T04:51:44.070Z,8.10
2022-10-14T04:54:12.127Z,9.50
2022-10-14T04:56:39.796Z,8.77
2022-10-14T04:59:06.993Z,9.80
2022-10-14T05:01:34.347Z,9.02
2022-10-14T05:04:01.674Z,9.07
2022-10-14T05:06:29.602Z,11.13
2022-10-14T05:08:57.279Z,10.48
2022-10-14T05:11:25.031Z,10.98
2022-10-14T05:13:52.206Z,7.80
2022-10-14T05:16:20.050Z,8.68
2022-10-14T05:18:49.782Z,10.52
2022-10-14T05:21:16.977Z,12.73
2022-10-14T05:23:48.629Z,10.77
2022-10-14T05:26:18.423Z,13.00
2022-10-14T05:28:45.738Z,12.73
2022-10-14T05:31:15.736Z,11.20
2022-10-14T05:33:42.968Z,12.73
2022-10-14T05:36:10.263Z,14.43
2022-10-14T05:38:37.963Z,15.45
2022-10-14T05:41:07.608Z,11.35
2022-10-14T05:43:34.826Z,14.68
2022-10-14T05:46:02.557Z,12.23
2022-10-14T05:48:32.879Z,12.82
2022-10-14T05:51:02.485Z,10.52
2022-10-14T05:53:34.382Z,12.60
2022-10-14T05:56:06.545Z,13.60
2022-10-14T05:58:34.450Z,11.20
2022-10-14T06:01:07.633Z,12.00
2022-10-14T06:03:35.072Z,10.77
2022-10-14T06:06:02.342Z,11.75
2022-10-14T06:08:30.026Z,15.52
2022-10-14T06:10:57.354Z,12.43
2022-10-14T06:13:25.134Z,12.25
2022-10-14T06:15:52.365Z,10.20
2022-10-14T06:18:22.111Z,11.10
2022-10-14T06:20:53.652Z,10.48
2022-10-14T06:23:20.950Z,12.52
2022-10-14T06:25:50.713Z,10.10
2022-10-14T06:28:18.066Z,15.45
2022-10-14T06:30:53.293Z,13.05
2022-10-14T06:33:21.371Z,12.93
2022-10-14T06:35:51.059Z,14.70
2022-10-14T06:38:18.291Z,10.05
2022-10-14T06:40:45.928Z,13.73
2022-10-14T06:43:13.224Z,13.48
2022-10-14T06:45:40.903Z,10.50
2022-10-14T06:48:08.502Z,10.50
2022-10-14T06:50:36.287Z,11.30
2022-10-14T06:53:08.747Z,12.23
2022-10-14T06:55:38.385Z,11.38
2022-10-14T06:58:08.210Z,13.52
2022-10-14T07:00:36.102Z,11.27
2022-10-14T07:03:06.321Z,16.50
2022-10-14T07:05:33.853Z,13.57
2022-10-14T07:10:33.492Z,11.68
2022-10-14T07:13:01.147Z,10.50
2022-10-14T07:15:35.353Z,11.35
2022-10-14T07:18:07.249Z,12.95
2022-10-14T07:20:37.106Z,10.95
2022-10-14T07:23:04.252Z,12.15
2022-10-14T07:25:32.865Z,12.13
2022-10-14T07:28:02.438Z,16.02
2022-10-14T07:30:29.879Z,16.38
2022-10-14T07:32:57.176Z,13.82
2022-10-14T07:35:25.693Z,10.88
2022-10-14T07:37:56.211Z,15.10
2022-10-14T07:40:25.621Z,14.27
2022-10-14T07:42:55.109Z,14.60
2022-10-14T07:45:22.827Z,11.57
2022-10-14T07:47:51.513Z,11.73
2022-10-14T07:50:23.751Z,13.48
2022-10-14T07:52:51.068Z,13.10
2022-10-14T07:55:18.470Z,13.80
2022-10-14T07:57:46.147Z,13.50
2022-10-14T08:00:13.542Z,14.20
2022-10-14T08:02:41.237Z,16.30
2022-10-14T08:05:36.684Z,14.10
2022-10-14T08:07:58.002Z,13.02
2022-10-14T08:10:28.194Z,11.30
2022-10-14T08:12:57.784Z,9.25
2022-10-14T08:15:28.599Z,10.90
2022-10-14T08:17:56.664Z,10.57
2022-10-14T08:20:24.521Z,11.90
2022-10-14T08:22:52.173Z,13.27
2022-10-14T08:25:19.873Z,10.00
2022-10-14T08:27:54.166Z,14.13
2022-10-14T08:30:22.017Z,10.88
2022-10-14T08:32:49.715Z,11.07
2022-10-14T08:35:19.350Z,16.55
2022-10-14T08:38:01.720Z,11.27
2022-10-14T08:40:37.275Z,9.07
2022-10-14T08:43:30.786Z,8.82
2022-10-14T08:46:23.346Z,7.80
2022-10-14T08:49:03.634Z,7.53
2022-10-14T08:51:32.212Z,8.20
2022-10-14T08:54:08.959Z,10.13
2022-10-14T08:56:39.067Z,7.97
2022-10-14T08:59:12.344Z,8.38
2022-10-14T09:02:04.366Z,8.95
2022-10-14T09:04:36.073Z,6.50
2022-10-14T09:07:06.786Z,7.65
2022-10-14T09:09:50.556Z,6.75
2022-10-14T09:15:07.963Z,8.63
2022-10-14T09:20:17.580Z,5.97
2022-10-14T09:25:22.988Z,6.43
2022-10-14T09:27:50.964Z,5.50
2022-10-14T09:30:21.321Z,7.28
2022-10-14T09:32:52.576Z,5.22
2022-10-14T09:35:31.085Z,7.85
2022-10-14T09:37:58.759Z,7.72
2022-10-14T09:40:46.716Z,5.72
2022-10-14T09:43:20.845Z,5.57
2022-10-14T09:45:52.993Z,4.85
2022-10-14T09:48:41.207Z,6.40
2022-10-14T09:51:11.847Z,4.55
2022-10-14T09:53:45.415Z,6.15
2022-10-14T09:56:13.389Z,6.70
2022-10-14T09:58:55.238Z,8.20
2022-10-14T10:01:40.426Z,5.60
2022-10-14T10:04:32.327Z,6.45
2022-10-14T10:07:02.136Z,4.53
2022-10-14T10:09:29.402Z,4.35
2022-10-14T10:11:56.709Z,4.32
2022-10-14T10:14:29.868Z,4.53
2022-10-14T10:17:12.779Z,3.63
2022-10-14T10:19:47.969Z,4.10
2022-10-14T10:22:24.717Z,4.30
2022-10-14T10:25:06.250Z,3.92
2022-10-14T10:27:45.831Z,4.00
2022-10-14T10:30:20.331Z,4.55
2022-10-14T10:32:56.400Z,4.68
2022-10-14T10:35:36.999Z,4.05
2022-10-14T10:38:15.592Z,4.22
2022-10-14T10:41:07.316Z,4.65
2022-10-14T10:43:54.377Z,3.10
2022-10-14T10:46:40.872Z,6.55
2022-10-14T10:49:43.384Z,3.92
2022-10-14T10:52:31.738Z,2.88
2022-10-14T10:55:23.154Z,2.72
2022-10-14T10:58:13.055Z,2.58
2022-10-14T11:01:16.823Z,1.83
2022-10-14T11:04:06.295Z,2.15
2022-10-14T11:06:58.303Z,2.83
2022-10-14T11:10:06.665Z,3.80
2022-10-14T11:12:45.246Z,3.97
2022-10-14T11:15:42.074Z,3.85
2022-10-14T11:18:27.675Z,3.72
2022-10-14T11:21:08.596Z,5.47
2022-10-14T11:24:21.159Z,4.03
2022-10-14T11:27:18.647Z,4.15
2022-10-14T11:30:18.935Z,5.43
2022-10-14T11:33:14.314Z,3.97
2022-10-14T11:36:13.195Z,4.65
2022-10-14T11:38:48.336Z,4.00
2022-10-14T11:41:24.214Z,4.28
2022-10-14T11:44:21.934Z,4.25
2022-10-14T11:46:56.358Z,4.70
2022-10-14T11:49:32.009Z,4.00
2022-10-14T11:52:07.755Z,3.67
2022-10-14T11:54:49.019Z,3.60
2022-10-14T11:57:35.148Z,3.72
2022-10-14T12:00:16.488Z,4.00
2022-10-14T12:03:24.167Z,3.28
2022-10-14T12:06:07.701Z,3.53
2022-10-14T12:08:40.396Z,5.55
2022-10-14T12:11:17.542Z,3.90
2022-10-14T12:13:52.655Z,5.25
2022-10-14T12:16:23.872Z,4.53
2022-10-14T12:18:57.932Z,8.20
2022-10-14T12:21:54.962Z,6.40
2022-10-14T12:24:32.446Z,7.75
2022-10-14T12:27:04.612Z,6.93
2022-10-14T12:29:37.172Z,5.93
2022-10-14T12:32:19.669Z,8.33
2022-10-14T12:34:51.115Z,6.50
2022-10-14T12:37:37.935Z,7.53
2022-10-14T12:40:06.783Z,7.22
2022-10-14T12:42:57.812Z,5.90
2022-10-14T12:45:30.160Z,6.55
2022-10-14T12:48:22.195Z,9.55
2022-10-14T12:50:53.238Z,5.85
2022-10-14T12:53:30.156Z,4.80
2022-10-14T12:56:02.935Z,7.00
2022-10-14T12:59:04.751Z,8.70
2022-10-14T13:01:35.537Z,9.18
2022-10-14T13:04:19.955Z,7.40
2022-10-14T13:10:34.252Z,9.00
2022-10-14T13:13:44.801Z,6.18
2022-10-14T13:16:21.039Z,7.82
2022-10-14T13:18:52.055Z,5.47
2022-10-14T13:21:34.602Z,9.18
2022-10-14T13:24:27.866Z,9.25
2022-10-14T13:27:01.982Z,7.20
2022-10-14T13:29:44.421Z,6.90
2022-10-14T13:32:35.589Z,9.38
2022-10-14T13:35:11.433Z,9.73
2022-10-14T13:37:46.406Z,8.88
2022-10-14T13:40:29.021Z,9.13
2022-10-14T13:43:20.844Z,9.77
2022-10-14T13:45:54.734Z,9.48
2022-10-14T13:48:34.732Z,13.70
2022-10-14T13:51:37.044Z,11.32
2022-10-14T13:54:20.555Z,9.65
2022-10-14T14:00:40.145Z,10.02
2022-10-14T14:03:25.705Z,9.43
2022-10-14T14:05:56.020Z,9.27
2022-10-14T14:08:41.814Z,9.13
2022-10-14T14:11:17.624Z,7.68
2022-10-14T14:14:16.824Z,9.80
2022-10-14T14:17:02.449Z,9.15
2022-10-14T14:19:32.919Z,9.57
2022-10-14T14:22:20.364Z,8.77
2022-10-14T14:24:48.946Z,8.55
2022-10-14T14:27:24.615Z,7.10
2022-10-14T14:29:55.492Z,10.60
2022-10-14T14:32:35.107Z,8.95
2022-10-14T14:35:07.137Z,9.23
2022-10-14T14:40:25.049Z,9.50
2022-10-14T14:43:06.454Z,10.65
2022-10-14T14:45:43.865Z,9.27
2022-10-14T14:48:15.947Z,11.75
2022-10-14T14:50:45.366Z,9.60
2022-10-14T14:53:29.458Z,8.93
2022-10-14T14:56:01.641Z,11.15
2022-10-14T14:58:50.634Z,10.32
2022-10-14T15:01:31.046Z,8.50
2022-10-14T15:04:15.545Z,11.02
2022-10-14T15:06:51.182Z,10.55
2022-10-14T15:09:53.085Z,10.02
2022-10-14T15:12:34.470Z,8.68
2022-10-14T15:15:05.477Z,10.20
2022-10-14T15:17:46.042Z,8.25
2022-10-14T15:20:36.052Z,8.93
2022-10-14T15:23:42.224Z,9.32
2022-10-14T15:26:35.275Z,10.10
2022-10-14T15:29:15.181Z,8.90
2022-10-14T15:32:13.374Z,10.57
2022-10-14T15:34:41.678Z,9.82
2022-10-14T15:37:13.697Z,11.80
2022-10-14T15:39:40.952Z,9.32
2022-10-14T15:42:12.548Z,8.75
2022-10-14T15:44:42.863Z,10.82
2022-10-14T15:47:21.677Z,7.50
2022-10-14T15:49:53.864Z,7.50
2022-10-14T15:52:24.521Z,7.68
2022-10-14T15:54:54.792Z,6.05
2022-10-14T15:57:24.877Z,7.20
2022-10-14T15:59:53.258Z,7.20
2022-10-14T16:02:35.131Z,6.97
2022-10-14T16:05:20.151Z,8.32
2022-10-14T16:07:49.035Z,9.15
2022-10-14T16:10:19.168Z,12.38
2022-10-14T16:12:46.647Z,8.18
2022-10-14T16:15:22.262Z,7.75
2022-10-14T16:17:53.019Z,11.05
2022-10-14T16:20:21.476Z,7.55
2022-10-14T16:22:49.408Z,7.45
2022-10-14T16:25:33.564Z,7.85
2022-10-14T16:28:04.295Z,8.38
2022-10-14T16:30:49.380Z,5.80
2022-10-14T16:33:18.501Z,6.75
2022-10-14T16:35:56.929Z,7.40
2022-10-14T16:38:24.307Z,7.03
2022-10-14T16:40:59.595Z,7.80
2022-10-14T16:43:29.865Z,5.70
2022-10-14T16:46:03.501Z,5.97
2022-10-14T16:48:32.491Z,7.70
2022-10-14T16:50:59.776Z,9.23
2022-10-14T16:53:45.097Z,11.23
2022-10-14T16:56:38.815Z,8.80
2022-10-14T16:59:09.795Z,8.85
2022-10-14T17:01:37.441Z,9.20
2022-10-14T17:04:07.523Z,7.78
2022-10-14T17:06:37.764Z,10.05
2022-10-14T17:09:05.604Z,12.88
2022-10-14T17:11:34.340Z,10.80
2022-10-14T17:14:02.442Z,9.82
2022-10-14T17:16:29.842Z,9.27
2022-10-14T17:18:58.681Z,8.95
2022-10-14T17:21:29.544Z,9.05
2022-10-14T17:24:04.881Z,7.53
2022-10-14T17:26:33.661Z,10.18
2022-10-14T17:29:01.660Z,9.43
2022-10-14T17:31:29.448Z,9.02
2022-10-14T17:33:58.496Z,7.90
2022-10-14T17:36:28.213Z,8.45
2022-10-14T17:38:57.219Z,9.18
2022-10-14T17:41:29.299Z,8.00
2022-10-14T17:43:57.858Z,8.85
2022-10-14T17:46:29.130Z,5.60
2022-10-14T17:48:58.945Z,8.98
2022-10-14T17:51:30.362Z,7.15
2022-10-14T17:54:00.624Z,6.60
2022-10-14T17:56:32.216Z,5.47
2022-10-14T17:59:01.138Z,6.88
2022-10-14T18:01:37.459Z,7.53
2022-10-14T18:04:13.448Z,6.95
2022-10-14T18:06:44.922Z,15.88
2022-10-14T18:09:15.575Z,10.43
2022-10-14T18:14:30.640Z,9.15
2022-10-14T18:17:00.790Z,13.88
2022-10-14T18:19:30.538Z,9.70
2022-10-14T18:21:58.006Z,9.15
2022-10-14T18:24:27.806Z,11.25
2022-10-14T18:26:57.470Z,12.48
2022-10-14T18:29:32.642Z,11.30
2022-10-14T18:32:00.314Z,11.57
2022-10-14T18:34:32.654Z,10.82
2022-10-14T18:37:02.548Z,11.40
2022-10-14T18:39:30.686Z,8.13
2022-10-14T18:42:00.000Z,8.73
2022-10-14T18:44:31.405Z,10.18
2022-10-14T18:46:59.647Z,9.05
2022-10-14T18:49:27.301Z,12.82
2022-10-14T18:51:55.258Z,8.48
2022-10-14T18:54:42.736Z,8.90
2022-10-14T18:57:14.750Z,7.53
2022-10-14T18:59:44.844Z,8.75
2022-10-14T19:02:15.615Z,8.50
2022-10-14T19:04:43.360Z,9.00
2022-10-14T19:07:12.737Z,9.88
2022-10-14T19:09:40.451Z,11.45
2022-10-14T19:12:27.649Z,7.20
2022-10-14T19:14:55.297Z,8.95
2022-10-14T19:17:27.043Z,9.27
2022-10-14T19:19:54.792Z,7.43
2022-10-14T19:22:22.781Z,9.18
2022-10-14T19:24:55.110Z,13.45
2022-10-14T19:27:23.020Z,9.55
2022-10-14T19:29:53.358Z,10.93
2022-10-14T19:32:21.037Z,10.85
2022-10-14T19:34:48.737Z,12.23
2022-10-14T19:37:16.449Z,11.98
2022-10-14T19:39:43.676Z,9.50
2022-10-14T19:42:10.915Z,10.50
2022-10-14T19:44:38.683Z,13.45
2022-10-14T19:47:08.451Z,13.23
2022-10-14T19:49:36.206Z,9.93
2022-10-14T19:52:04.014Z,10.43
2022-10-14T19:54:33.634Z,14.23
2022-10-14T19:57:01.271Z,12.68
2022-10-14T19:59:29.014Z,11.30
2022-10-14T20:01:56.215Z,16.70
2022-10-14T20:04:27.387Z,17.55
2022-10-14T20:06:57.648Z,12.98
2022-10-14T20:09:27.272Z,12.23
2022-10-14T20:11:57.010Z,11.98
2022-10-14T20:14:26.897Z,13.27
2022-10-14T20:16:55.871Z,11.82
2022-10-14T20:19:25.432Z,9.60
2022-10-14T20:21:52.657Z,10.60
2022-10-14T20:24:20.331Z,12.70
2022-10-14T20:26:47.558Z,8.73
2022-10-14T20:29:14.873Z,12.65
2022-10-14T20:31:42.118Z,9.23
2022-10-14T20:34:10.423Z,9.98
2022-10-14T20:36:38.409Z,11.02
2022-10-14T20:39:08.111Z,8.35
2022-10-14T20:41:38.465Z,8.35
2022-10-14T20:44:05.661Z,7.78
2022-10-14T20:46:33.337Z,7.55
2022-10-14T20:49:03.275Z,8.05
2022-10-14T20:51:30.722Z,7.50
2022-10-14T20:54:02.923Z,7.13
2022-10-14T20:56:34.105Z,6.18
2022-10-14T20:59:06.790Z,6.28
2022-10-14T21:01:38.269Z,5.90
2022-10-14T21:04:08.310Z,6.65
2022-10-14T21:06:36.096Z,5.68
2022-10-14T21:09:03.790Z,7.25
2022-10-14T21:11:31.534Z,6.18
2022-10-14T21:14:00.330Z,6.40
2022-10-14T21:16:31.281Z,7.95
2022-10-14T21:19:02.838Z,8.55
2022-10-14T21:21:34.453Z,5.72
2022-10-14T21:24:02.422Z,5.55
2022-10-14T21:26:34.911Z,5.65
2022-10-14T21:29:04.984Z,6.70
2022-10-14T21:31:32.565Z,7.63
2022-10-14T21:34:05.844Z,6.65
2022-10-14T21:36:37.066Z,5.25
2022-10-14T21:39:12.656Z,7.53
2022-10-14T21:41:40.816Z,6.43
2022-10-14T21:44:08.979Z,6.22
2022-10-14T21:46:37.209Z,6.75
2022-10-14T21:49:06.998Z,6.72
2022-10-14T21:51:34.217Z,7.03
2022-10-14T21:54:01.423Z,7.00
2022-10-14T21:56:31.211Z,9.40
2022-10-14T21:58:59.383Z,6.18
2022-10-14T22:01:29.075Z,9.05
2022-10-14T22:03:59.755Z,8.05
2022-10-14T22:06:30.254Z,5.72
2022-10-14T22:08:59.862Z,5.80
2022-10-14T22:11:30.598Z,6.60
2022-10-14T22:14:02.513Z,7.97
2022-10-14T22:16:30.135Z,7.13
2022-10-14T22:19:03.421Z,5.32
2022-10-14T22:21:35.148Z,6.25
2022-10-14T22:24:02.471Z,5.32
2022-10-14T22:26:31.278Z,7.57
2022-10-14T22:29:01.424Z,5.85
2022-10-14T22:31:32.906Z,10.48
2022-10-14T22:34:06.493Z,7.47
2022-10-14T22:39:10.088Z,7.65
2022-10-14T22:41:37.350Z,9.90
2022-10-14T22:44:08.469Z,7.25
2022-10-14T22:46:37.803Z,7.20
2022-10-14T22:49:05.471Z,7.25
2022-10-14T22:51:40.524Z,7.30
2022-10-14T22:54:12.041Z,9.48
2022-10-14T22:56:39.908Z,11.43
2022-10-14T22:59:10.773Z,6.95
2022-10-14T23:01:39.316Z,6.95
2022-10-14T23:04:07.179Z,7.20
2022-10-14T23:06:36.998Z,7.18
2022-10-14T23:09:04.719Z,8.00
2022-10-14T23:11:34.894Z,7.53
2022-10-14T23:14:06.321Z,9.88
2022-10-14T23:16:37.739Z,8.60
2022-10-14T23:19:05.553Z,7.95
2022-10-14T23:21:35.266Z,9.63
2022-10-14T23:24:05.100Z,8.02
2022-10-14T23:26:34.474Z,10.82
2022-10-14T23:29:05.680Z,8.10
2022-10-14T23:31:37.006Z,11.20
2022-10-14T23:34:07.923Z,11.15
2022-10-14T23:36:35.100Z,13.25
2022-10-14T23:39:07.504Z,11.02
2022-10-14T23:41:34.762Z,12.90
2022-10-14T23:44:02.059Z,12.52
2022-10-14T23:46:29.702Z,11.55
2022-10-14T23:49:07.285Z,11.90
2022-10-14T23:51:44.697Z,12.48
2022-10-14T23:54:12.392Z,13.38
2022-10-14T23:56:44.231Z,12.60
2022-10-14T23:59:13.934Z,14.40
